Time;durP1;ratioP1;P1;durP2;ratioP2;P2;SDS_P1;SDS_P2;PMS_P1;PMS_P2;Temp;Humidity;BMP_temperature;BMP_pressure;BME280_temperature;BME280_humidity;BME280_pressure;Samples;Min_cycle;Max_cycle;Signal;HPM_P1;HPM_P2
2022/02/08 00:00:51;;;;;;;;;;;0.60;99.90;;;;;;4192043;28;19962;-59
2022/02/08 00:02:55;;;;;;;;;;;0.60;99.90;;;;;;4173092;28;19917;-58
2022/02/08 00:04:58;;;;;;;;;;;0.60;99.90;;;;;;4186647;28;20319;-62
2022/02/08 00:07:02;;;;;;;;;;;0.60;99.90;;;;;;4190134;28;19921;-56
2022/02/08 00:09:04;;;;;;;;;;;0.60;99.90;;;;;;4190705;28;19917;-60
2022/02/08 00:11:05;;;;;;;;;;;0.60;99.90;;;;;;4187228;28;19921;-60
2022/02/08 00:13:06;;;;;;;;;;;0.60;99.90;;;;;;4175212;28;19962;-54
2022/02/08 00:15:07;;;;;;;;;;;0.60;99.90;;;;;;4176140;28;19913;-59
2022/02/08 00:17:08;;;;;;;;;;;0.60;99.90;;;;;;4175395;28;19905;-61
2022/02/08 00:19:09;;;;;;;;;;;0.60;99.90;;;;;;4176246;28;19920;-61
2022/02/08 00:21:10;;;;;;;;;;;0.60;99.90;;;;;;4175315;28;19990;-56
2022/02/08 00:23:11;;;;;;;;;;;0.60;99.90;;;;;;4174437;28;19913;-60
2022/02/08 00:25:12;;;;;;;;;;;0.70;99.90;;;;;;4179850;28;19913;-62
2022/02/08 00:27:13;;;;;;;;;;;0.70;99.90;;;;;;4186552;28;19916;-58
2022/02/08 00:29:14;;;;;;;;;;;0.70;99.90;;;;;;4189309;28;19993;-60
2022/02/08 00:31:15;;;;;;;;;;;0.70;99.90;;;;;;4185306;28;19916;-61
2022/02/08 00:33:16;;;;;;;;;;;0.70;99.90;;;;;;4192411;28;19916;-64
2022/02/08 00:35:17;;;;;;;;;;;0.70;99.90;;;;;;4190178;28;20368;-59
2022/02/08 00:37:19;;;;;;;;;;;0.70;99.90;;;;;;4192608;28;19931;-58
2022/02/08 00:39:22;;;;;;;;;;;0.80;99.90;;;;;;4190344;28;19961;-60
2022/02/08 00:41:25;;;;;;;;;;;0.80;99.90;;;;;;4178542;28;20430;-60
2022/02/08 00:43:31;;;;;;;;;;;0.80;99.90;;;;;;4190314;28;19916;-57
2022/02/08 00:45:47;;;;;;;;;;;0.80;99.90;;;;;;4191822;28;19962;-60
2022/02/08 00:48:06;;;;;;;;;;;0.80;99.90;;;;;;4188875;28;19973;-57
2022/02/08 00:50:09;;;;;;;;;;;0.80;99.90;;;;;;4190495;28;19974;-59
2022/02/08 00:52:15;;;;;;;;;;;0.80;99.90;;;;;;4190566;28;19912;-59
2022/02/08 00:54:17;;;;;;;;;;;0.80;99.90;;;;;;4192432;28;19958;-58
2022/02/08 00:56:18;;;;;;;;;;;0.80;99.90;;;;;;4188519;28;19978;-59
2022/02/08 00:58:19;;;;;;;;;;;0.80;99.90;;;;;;4175787;28;21049;-60
2022/02/08 01:00:22;;;;;;;;;;;0.80;99.90;;;;;;4176636;28;19929;-60
2022/02/08 01:02:23;;;;;;;;;;;0.80;99.90;;;;;;4174690;28;19971;-61
2022/02/08 01:04:25;;;;;;;;;;;0.80;99.90;;;;;;4175393;28;20805;-60
2022/02/08 01:06:27;;;;;;;;;;;0.80;99.90;;;;;;4156336;28;19933;-58
2022/02/08 01:08:31;;;;;;;;;;;0.80;99.90;;;;;;4175014;28;19963;-56
2022/02/08 01:10:37;;;;;;;;;;;0.80;99.90;;;;;;4174463;28;20356;-59
2022/02/08 01:12:38;;;;;;;;;;;0.70;99.90;;;;;;4176149;28;19967;-59
2022/02/08 01:14:41;;;;;;;;;;;0.70;99.90;;;;;;4179552;28;19970;-59
2022/02/08 01:16:43;;;;;;;;;;;0.70;99.90;;;;;;4191810;28;19912;-56
2022/02/08 01:18:45;;;;;;;;;;;0.70;99.90;;;;;;4188535;28;19962;-59
2022/02/08 01:20:47;;;;;;;;;;;0.70;99.90;;;;;;4191923;28;20281;-57
2022/02/08 01:22:49;;;;;;;;;;;0.70;99.90;;;;;;4173983;28;19913;-59
2022/02/08 01:24:51;;;;;;;;;;;0.70;99.90;;;;;;4190384;28;19916;-60
2022/02/08 01:27:01;;;;;;;;;;;0.80;99.90;;;;;;4186195;28;19912;-60
2022/02/08 01:29:19;;;;;;;;;;;0.70;99.90;;;;;;4190012;28;19916;-58
2022/02/08 01:31:21;;;;;;;;;;;0.80;99.90;;;;;;4175406;28;19917;-58
2022/02/08 01:42:39;;;;;;;;;;;0.70;99.90;;;;;;4177690;28;19925;-59
2022/02/08 01:47:09;;;;;;;;;;;0.70;99.90;;;;;;4174598;28;19967;-56
2022/02/08 01:49:10;;;;;;;;;;;0.70;99.90;;;;;;4169483;28;19986;-60
2022/02/08 01:51:11;;;;;;;;;;;0.70;99.90;;;;;;4174601;28;19909;-60
2022/02/08 01:53:12;;;;;;;;;;;0.60;99.90;;;;;;4175416;28;20030;-57
2022/02/08 01:55:14;;;;;;;;;;;0.60;99.90;;;;;;4181486;28;19912;-58
2022/02/08 01:57:15;;;;;;;;;;;0.50;99.90;;;;;;4189809;28;19917;-58
2022/02/08 01:59:16;;;;;;;;;;;0.40;99.90;;;;;;4191101;28;19913;-59
2022/02/08 02:01:17;;;;;;;;;;;0.40;99.90;;;;;;4189047;28;19981;-59
2022/02/08 02:03:18;;;;;;;;;;;0.40;99.90;;;;;;4189230;28;19924;-61
2022/02/08 02:05:19;;;;;;;;;;;0.40;99.90;;;;;;4188759;28;19913;-63
2022/02/08 02:07:20;;;;;;;;;;;0.30;99.90;;;;;;4188407;28;19912;-52
2022/02/08 02:09:21;;;;;;;;;;;0.30;99.90;;;;;;4183436;28;19945;-58
2022/02/08 02:11:22;;;;;;;;;;;0.30;99.90;;;;;;4180126;28;20034;-59
2022/02/08 02:15:29;;;;;;;;;;;0.30;99.90;;;;;;4188399;28;19920;-55
2022/02/08 02:17:33;;;;;;;;;;;0.30;99.90;;;;;;4191229;28;20005;-56
2022/02/08 02:19:35;;;;;;;;;;;0.30;99.90;;;;;;4188114;28;20222;-60
2022/02/08 02:21:36;;;;;;;;;;;0.20;99.90;;;;;;4183063;28;19971;-57
2022/02/08 02:23:36;;;;;;;;;;;0.20;99.90;;;;;;4173208;28;19963;-59
2022/02/08 02:25:37;;;;;;;;;;;0.20;99.90;;;;;;4172089;28;19978;-61
2022/02/08 02:27:40;;;;;;;;;;;0.20;99.90;;;;;;4185131;28;19958;-61
2022/02/08 02:29:41;;;;;;;;;;;0.10;99.90;;;;;;4190519;28;19916;-56
2022/02/08 02:31:43;;;;;;;;;;;0.10;99.90;;;;;;4188233;28;20835;-56
2022/02/08 02:33:44;;;;;;;;;;;0.10;99.90;;;;;;4188999;28;19920;-59
2022/02/08 02:35:47;;;;;;;;;;;0.10;99.90;;;;;;4188364;28;19970;-67
2022/02/08 02:37:48;;;;;;;;;;;0.10;99.90;;;;;;4173790;28;20430;-59
2022/02/08 02:39:49;;;;;;;;;;;0.00;99.90;;;;;;4173386;28;19935;-61
2022/02/08 02:41:51;;;;;;;;;;;0.00;99.90;;;;;;4175832;28;20540;-61
2022/02/08 02:43:52;;;;;;;;;;;0.00;99.90;;;;;;4190232;28;19961;-54
2022/02/08 02:45:53;;;;;;;;;;;0.00;99.90;;;;;;4189021;28;19962;-58
2022/02/08 02:47:55;;;;;;;;;;;0.00;99.90;;;;;;4188367;28;20350;-56
2022/02/08 02:49:56;;;;;;;;;;;0.00;99.90;;;;;;4189702;28;19912;-59
2022/02/08 02:51:57;;;;;;;;;;;0.00;99.90;;;;;;4190313;28;19916;-59
2022/02/08 02:53:58;;;;;;;;;;;0.00;99.90;;;;;;4171126;28;19920;-57
2022/02/08 02:55:59;;;;;;;;;;;0.10;99.90;;;;;;4189327;28;19912;-60
2022/02/08 02:58:01;;;;;;;;;;;0.10;99.90;;;;;;4187753;28;19942;-54
2022/02/08 03:00:11;;;;;;;;;;;0.10;99.90;;;;;;4176928;28;19947;-59
2022/02/08 03:20:05;;;;;;;;;;;0.00;99.90;;;;;;4186858;28;20361;-59
2022/02/08 03:22:06;;;;;;;;;;;0.00;99.90;;;;;;4187767;28;19991;-62
2022/02/08 03:24:08;;;;;;;;;;;0.00;99.90;;;;;;4187701;28;20357;-59
2022/02/08 03:26:09;;;;;;;;;;;0.00;99.90;;;;;;4189841;28;20394;-64
2022/02/08 03:28:10;;;;;;;;;;;0.10;99.90;;;;;;4191810;28;19913;-56
2022/02/08 03:30:11;;;;;;;;;;;0.00;99.90;;;;;;4191943;28;20866;-57
2022/02/08 03:32:15;;;;;;;;;;;0.00;99.90;;;;;;4190134;28;19920;-58
2022/02/08 03:34:15;;;;;;;;;;;0.10;99.90;;;;;;4192563;28;20307;-58
2022/02/08 03:36:16;;;;;;;;;;;0.10;99.90;;;;;;4192003;28;20328;-58
2022/02/08 03:38:22;;;;;;;;;;;0.10;99.90;;;;;;4178028;28;19920;-59
2022/02/08 03:40:46;;;;;;;;;;;0.00;99.90;;;;;;4176579;28;19924;-59
2022/02/08 03:42:58;;;;;;;;;;;0.00;99.90;;;;;;4187171;28;19917;-64
2022/02/08 03:45:01;;;;;;;;;;;0.00;99.90;;;;;;4190337;28;19921;-60
2022/02/08 03:47:06;;;;;;;;;;;0.00;99.90;;;;;;4177750;28;20365;-61
2022/02/08 03:49:07;;;;;;;;;;;0.00;99.90;;;;;;4175815;28;20793;-57
2022/02/08 03:51:13;;;;;;;;;;;0.10;99.90;;;;;;4176205;28;19955;-59
2022/02/08 03:53:14;;;;;;;;;;;0.00;99.90;;;;;;4176757;28;19913;-59
2022/02/08 03:55:15;;;;;;;;;;;0.10;99.90;;;;;;4175628;28;19916;-60
2022/02/08 03:57:16;;;;;;;;;;;0.10;99.90;;;;;;4176096;28;19916;-59
2022/02/08 03:59:17;;;;;;;;;;;0.10;99.90;;;;;;4175554;28;19913;-55
2022/02/08 04:03:46;;;;;;;;;;;0.10;99.90;;;;;;4175342;28;19960;-58
2022/02/08 04:05:50;;;;;;;;;;;0.00;99.90;;;;;;4176348;28;20396;-59
2022/02/08 04:07:56;;;;;;;;;;;0.00;99.90;;;;;;4175121;28;20290;-58
2022/02/08 04:10:01;;;;;;;;;;;0.00;99.90;;;;;;4187584;28;20341;-59
2022/02/08 04:12:06;;;;;;;;;;;0.00;99.90;;;;;;4191455;28;19916;-59
2022/02/08 04:14:26;;;;;;;;;;;0.00;99.90;;;;;;4192141;28;19916;-59
2022/02/08 04:16:32;;;;;;;;;;;0.00;99.90;;;;;;4189603;28;19917;-60
2022/02/08 04:34:49;;;;;;;;;;;0.00;99.90;;;;;;4183608;28;19970;-61
2022/02/08 04:41:42;;;;;;;;;;;0.00;99.90;;;;;;4187759;28;19985;-58
2022/02/08 04:44:09;;;;;;;;;;;0.10;99.90;;;;;;4192697;28;19912;-55
2022/02/08 04:48:47;;;;;;;;;;;0.00;99.90;;;;;;4176743;28;19970;-59
2022/02/08 04:50:52;;;;;;;;;;;0.00;99.90;;;;;;4183176;28;20327;-61
2022/02/08 04:52:58;;;;;;;;;;;0.00;99.90;;;;;;4189886;28;19986;-60
2022/02/08 04:59:34;;;;;;;;;;;0.10;99.90;;;;;;4174797;28;19921;-56
2022/02/08 05:34:37;;;;;;;;;;;0.30;99.90;;;;;;4178454;28;20017;-64
2022/02/08 05:47:19;;;;;;;;;;;0.30;99.90;;;;;;4188723;28;19922;-59
2022/02/08 05:49:38;;;;;;;;;;;0.30;99.90;;;;;;4190961;28;19924;-59
2022/02/08 05:53:49;;;;;;;;;;;0.40;99.90;;;;;;4190725;28;20199;-59
2022/02/08 05:55:51;;;;;;;;;;;0.50;99.90;;;;;;4189067;28;20309;-55
2022/02/08 05:57:52;;;;;;;;;;;0.70;99.90;;;;;;4189547;28;19912;-55
2022/02/08 05:59:53;;;;;;;;;;;0.80;99.90;;;;;;4179903;28;19916;-58
2022/02/08 06:01:54;;;;;;;;;;;1.00;99.90;;;;;;4173896;28;19920;-57
2022/02/08 06:03:56;;;;;;;;;;;1.10;99.90;;;;;;4172973;28;19947;-54
2022/02/08 06:05:57;;;;;;;;;;;1.30;99.90;;;;;;4173913;28;20373;-61
2022/02/08 06:07:58;;;;;;;;;;;1.50;99.90;;;;;;4173255;28;20346;-57
2022/02/08 06:09:59;;;;;;;;;;;1.60;99.90;;;;;;4173776;28;19917;-55
2022/02/08 06:12:00;;;;;;;;;;;1.80;99.90;;;;;;4172967;28;19913;-57
2022/02/08 06:14:03;;;;;;;;;;;1.90;99.90;;;;;;4174121;28;19913;-65
2022/02/08 06:16:06;;;;;;;;;;;2.00;99.90;;;;;;4173285;28;20357;-58
2022/02/08 06:18:06;;;;;;;;;;;1.90;99.90;;;;;;4172674;28;19913;-59
2022/02/08 06:20:08;;;;;;;;;;;1.70;99.90;;;;;;4173588;28;20145;-57
2022/02/08 06:22:09;;;;;;;;;;;1.60;99.90;;;;;;4172755;28;20369;-53
2022/02/08 06:24:12;;;;;;;;;;;1.80;99.90;;;;;;4173414;28;19994;-57
2022/02/08 06:26:15;;;;;;;;;;;1.90;99.90;;;;;;4184612;28;20410;-56
2022/02/08 06:28:17;;;;;;;;;;;2.10;99.90;;;;;;4190501;28;19916;-56
2022/02/08 06:30:21;;;;;;;;;;;2.10;99.90;;;;;;4188826;28;19920;-58
2022/02/08 06:32:22;;;;;;;;;;;2.10;99.90;;;;;;4190065;28;19916;-58
2022/02/08 06:34:26;;;;;;;;;;;2.20;99.90;;;;;;4189561;28;20327;-64
2022/02/08 06:36:27;;;;;;;;;;;2.30;99.90;;;;;;4192137;28;19966;-65
2022/02/08 06:38:28;;;;;;;;;;;2.40;99.90;;;;;;4193155;28;20003;-61
2022/02/08 06:40:31;;;;;;;;;;;2.60;99.90;;;;;;4193826;28;19962;-57
2022/02/08 06:42:32;;;;;;;;;;;2.80;99.90;;;;;;4192301;28;19974;-55
2022/02/08 06:44:33;;;;;;;;;;;3.00;99.90;;;;;;4194309;28;19970;-58
2022/02/08 06:46:34;;;;;;;;;;;3.20;99.90;;;;;;4193186;28;19966;-62
2022/02/08 06:48:35;;;;;;;;;;;3.50;99.90;;;;;;4192677;28;19928;-62
2022/02/08 06:50:37;;;;;;;;;;;3.90;99.90;;;;;;4193034;28;20676;-64
2022/02/08 06:52:38;;;;;;;;;;;3.90;99.90;;;;;;4192487;28;20319;-59
2022/02/08 06:54:39;;;;;;;;;;;4.00;99.90;;;;;;4193407;28;19927;-58
2022/02/08 06:56:40;;;;;;;;;;;3.90;99.90;;;;;;4192833;28;20360;-59
2022/02/08 06:59:18;;;;;;;;;;;3.60;99.90;;;;;;4193722;28;20353;-59
2022/02/08 07:01:08;;;;;;;;;;;3.60;99.90;;;;;;4191334;28;19921;-57
2022/02/08 07:03:11;;;;;;;;;;;3.80;99.90;;;;;;4193308;28;19913;-60
2022/02/08 07:05:12;;;;;;;;;;;3.90;99.90;;;;;;4192524;28;19913;-58
2022/02/08 07:07:15;;;;;;;;;;;4.00;99.90;;;;;;4193495;28;20376;-59
2022/02/08 07:09:16;;;;;;;;;;;4.20;99.90;;;;;;4192014;28;20369;-58
2022/02/08 07:11:18;;;;;;;;;;;4.10;99.90;;;;;;4193138;28;19915;-61
2022/02/08 07:13:19;;;;;;;;;;;4.00;99.90;;;;;;4192621;28;19913;-62
2022/02/08 07:15:20;;;;;;;;;;;4.20;99.90;;;;;;4193564;28;19947;-61
2022/02/08 07:17:21;;;;;;;;;;;4.30;99.90;;;;;;4192297;28;19942;-56
2022/02/08 07:19:22;;;;;;;;;;;4.30;99.90;;;;;;4192748;28;19912;-60
2022/02/08 07:21:23;;;;;;;;;;;4.40;99.90;;;;;;4191604;28;19920;-59
2022/02/08 07:23:24;;;;;;;;;;;4.40;99.90;;;;;;4192784;28;19908;-58
2022/02/08 07:25:25;;;;;;;;;;;4.40;99.90;;;;;;4192266;28;19931;-61
2022/02/08 07:27:26;;;;;;;;;;;4.60;99.90;;;;;;4192727;28;19964;-59
2022/02/08 07:29:28;;;;;;;;;;;4.90;99.90;;;;;;4192105;28;19912;-57
2022/02/08 07:31:37;;;;;;;;;;;4.80;99.90;;;;;;4191705;28;19961;-57
2022/02/08 07:33:41;;;;;;;;;;;4.80;99.90;;;;;;4192276;28;19908;-57
2022/02/08 07:35:50;;;;;;;;;;;4.70;99.90;;;;;;4191927;28;19912;-58
2022/02/08 07:37:58;;;;;;;;;;;4.70;99.90;;;;;;4175637;28;19912;-60
2022/02/08 07:40:04;;;;;;;;;;;4.80;99.90;;;;;;4190566;28;19912;-57
2022/02/08 07:42:05;;;;;;;;;;;4.90;99.90;;;;;;4192626;28;19990;-57
2022/02/08 07:44:07;;;;;;;;;;;4.70;99.90;;;;;;4192245;28;19966;-61
2022/02/08 07:46:08;;;;;;;;;;;4.50;99.90;;;;;;4192357;28;19916;-59
2022/02/08 07:48:09;;;;;;;;;;;4.50;99.90;;;;;;4190473;28;19912;-60
2022/02/08 07:50:12;;;;;;;;;;;4.40;99.90;;;;;;4192276;28;19970;-58
2022/02/08 07:52:14;;;;;;;;;;;4.40;99.90;;;;;;4191643;28;20021;-57
2022/02/08 07:54:15;;;;;;;;;;;4.40;99.90;;;;;;4192932;28;19962;-59
2022/02/08 07:56:16;;;;;;;;;;;4.60;99.90;;;;;;4190730;28;19913;-59
2022/02/08 07:58:17;;;;;;;;;;;4.30;99.90;;;;;;4192905;28;19912;-62
2022/02/08 08:00:18;;;;;;;;;;;4.00;99.90;;;;;;4190877;28;20280;-58
2022/02/08 08:02:19;;;;;;;;;;;3.90;99.90;;;;;;4191117;28;20351;-59
2022/02/08 08:04:20;;;;;;;;;;;3.70;99.90;;;;;;4191802;28;19921;-61
2022/02/08 08:06:21;;;;;;;;;;;3.40;99.90;;;;;;4173748;28;19967;-59
2022/02/08 08:08:23;;;;;;;;;;;3.20;99.90;;;;;;4174614;28;19966;-58
2022/02/08 08:10:29;;;;;;;;;;;3.00;99.90;;;;;;4191422;28;20340;-59
2022/02/08 08:12:33;;;;;;;;;;;2.90;99.90;;;;;;4190512;28;19912;-58
2022/02/08 08:14:34;;;;;;;;;;;2.80;99.90;;;;;;4192096;28;19916;-56
2022/02/08 08:18:56;;;;;;;;;;;2.70;99.90;;;;;;4191163;28;19932;-57
2022/02/08 08:20:57;;;;;;;;;;;2.70;99.90;;;;;;4191958;28;20676;-64
2022/02/08 08:22:58;;;;;;;;;;;2.70;99.90;;;;;;4189559;28;19988;-56
2022/02/08 08:25:01;;;;;;;;;;;2.60;99.90;;;;;;4191280;28;19912;-69
2022/02/08 08:27:04;;;;;;;;;;;2.50;99.90;;;;;;4191458;28;20710;-61
2022/02/08 08:29:05;;;;;;;;;;;2.50;99.90;;;;;;4191905;28;20436;-64
2022/02/08 08:31:06;;;;;;;;;;;2.50;99.90;;;;;;4191288;28;19960;-63
2022/02/08 08:33:07;;;;;;;;;;;2.60;99.90;;;;;;4192288;28;19916;-58
2022/02/08 08:35:09;;;;;;;;;;;2.60;99.90;;;;;;4190764;28;19994;-53
2022/02/08 08:37:10;;;;;;;;;;;2.70;99.90;;;;;;4192076;28;19970;-59
2022/02/08 08:39:11;;;;;;;;;;;2.60;99.90;;;;;;4190813;28;19958;-61
2022/02/08 08:41:28;;;;;;;;;;;2.60;99.90;;;;;;4191101;28;20014;-64
2022/02/08 08:44:01;;;;;;;;;;;2.60;99.90;;;;;;4190954;28;19921;-63
2022/02/08 08:48:50;;;;;;;;;;;2.50;99.90;;;;;;4190635;28;19978;-59
2022/02/08 08:53:07;;;;;;;;;;;2.50;99.90;;;;;;4190766;28;19917;-67
2022/02/08 08:55:09;;;;;;;;;;;2.50;99.90;;;;;;4191754;28;20660;-58
2022/02/08 08:57:10;;;;;;;;;;;2.60;99.90;;;;;;4190750;28;19916;-64
2022/02/08 08:59:12;;;;;;;;;;;2.60;99.90;;;;;;4191443;28;19912;-57
2022/02/08 09:01:13;;;;;;;;;;;2.60;99.90;;;;;;4189546;28;19916;-58
2022/02/08 09:03:14;;;;;;;;;;;2.50;99.90;;;;;;4191203;28;19912;-56
2022/02/08 09:05:16;;;;;;;;;;;2.60;99.90;;;;;;4190162;28;20416;-58
2022/02/08 09:07:18;;;;;;;;;;;2.60;99.90;;;;;;4191433;28;19958;-58
2022/02/08 09:09:24;;;;;;;;;;;2.60;99.90;;;;;;4190656;28;19913;-57
2022/02/08 09:13:36;;;;;;;;;;;2.60;99.90;;;;;;4191306;28;19913;-55
2022/02/08 09:15:51;;;;;;;;;;;2.70;99.90;;;;;;4190897;28;19912;-58
2022/02/08 09:20:23;;;;;;;;;;;2.70;99.90;;;;;;4190379;28;19913;-58
2022/02/08 09:27:32;;;;;;;;;;;2.70;99.90;;;;;;4190401;28;19908;-60
2022/02/08 09:29:42;;;;;;;;;;;2.60;99.90;;;;;;4190959;28;19916;-59
2022/02/08 09:31:44;;;;;;;;;;;2.60;99.90;;;;;;4189349;28;19969;-59
2022/02/08 09:33:46;;;;;;;;;;;2.60;99.90;;;;;;4191046;28;20676;-61
2022/02/08 09:35:49;;;;;;;;;;;2.70;99.90;;;;;;4190375;28;19965;-58
2022/02/08 09:37:50;;;;;;;;;;;2.70;99.90;;;;;;4190590;28;19965;-59
2022/02/08 09:39:52;;;;;;;;;;;2.70;99.90;;;;;;4189525;28;20365;-58
2022/02/08 09:41:55;;;;;;;;;;;2.70;99.90;;;;;;4190661;28;19966;-58
2022/02/08 09:43:57;;;;;;;;;;;2.70;99.90;;;;;;4189443;28;20566;-57
2022/02/08 09:46:01;;;;;;;;;;;2.70;99.90;;;;;;4190814;28;19916;-56
2022/02/08 09:48:09;;;;;;;;;;;2.70;99.90;;;;;;4190242;28;19916;-65
2022/02/08 09:50:19;;;;;;;;;;;2.70;99.90;;;;;;4190037;28;20326;-56
2022/02/08 09:52:21;;;;;;;;;;;2.70;99.90;;;;;;4190220;28;19916;-56
2022/02/08 09:54:23;;;;;;;;;;;2.70;99.90;;;;;;4190499;28;19920;-67
2022/02/08 09:56:26;;;;;;;;;;;2.70;99.90;;;;;;4190170;28;19958;-60
2022/02/08 09:58:27;;;;;;;;;;;2.70;99.90;;;;;;4189740;28;19992;-58
2022/02/08 10:00:28;;;;;;;;;;;2.70;99.90;;;;;;4190245;28;20673;-58
2022/02/08 10:02:29;;;;;;;;;;;2.70;99.90;;;;;;4189320;28;19943;-62
2022/02/08 10:04:30;;;;;;;;;;;2.70;99.90;;;;;;4190419;28;19924;-58
2022/02/08 10:06:31;;;;;;;;;;;2.60;99.90;;;;;;4189821;28;19916;-58
2022/02/08 10:08:32;;;;;;;;;;;2.60;99.90;;;;;;4190922;28;19974;-58
2022/02/08 10:10:33;;;;;;;;;;;2.60;99.90;;;;;;4189000;28;19948;-58
2022/02/08 10:23:51;;;;;;;;;;;2.50;99.90;;;;;;4189675;28;19912;-57
2022/02/08 10:26:03;;;;;;;;;;;2.40;99.90;;;;;;4189701;28;20330;-60
2022/02/08 10:28:15;;;;;;;;;;;2.40;99.90;;;;;;4189707;28;20011;-59
2022/02/08 10:37:39;;;;;;;;;;;2.40;99.90;;;;;;4189715;28;19969;-56
2022/02/08 10:39:40;;;;;;;;;;;2.50;99.90;;;;;;4190260;28;20414;-57
2022/02/08 10:41:45;;;;;;;;;;;2.60;99.90;;;;;;4189114;28;20010;-62
2022/02/08 10:43:57;;;;;;;;;;;2.60;99.90;;;;;;4190481;28;19958;-59
2022/02/08 10:45:59;;;;;;;;;;;2.60;99.90;;;;;;4188606;28;19935;-58
2022/02/08 10:48:03;;;;;;;;;;;2.60;99.90;;;;;;4189783;28;19982;-65
2022/02/08 10:50:05;;;;;;;;;;;2.70;99.90;;;;;;4189532;28;20262;-63
2022/02/08 10:52:09;;;;;;;;;;;2.70;99.90;;;;;;4190204;28;20021;-59
2022/02/08 10:54:18;;;;;;;;;;;2.80;99.90;;;;;;4189490;28;20257;-60
2022/02/08 10:56:23;;;;;;;;;;;2.80;99.90;;;;;;4190061;28;20334;-59
2022/02/08 10:58:35;;;;;;;;;;;2.80;99.90;;;;;;4188688;28;19912;-57
2022/02/08 11:00:43;;;;;;;;;;;2.90;99.90;;;;;;4189853;28;19948;-56
2022/02/08 11:02:48;;;;;;;;;;;2.90;99.90;;;;;;4188888;28;19990;-57
2022/02/08 11:07:08;;;;;;;;;;;2.90;99.90;;;;;;4189262;28;19920;-56
2022/02/08 11:16:07;;;;;;;;;;;2.90;99.90;;;;;;4189192;28;20357;-58
2022/02/08 11:20:31;;;;;;;;;;;3.00;99.90;;;;;;4188899;28;19920;-58
2022/02/08 11:25:12;;;;;;;;;;;3.10;99.90;;;;;;4187101;28;19935;-58
2022/02/08 11:27:17;;;;;;;;;;;3.20;99.90;;;;;;4193133;28;19981;-63
2022/02/08 11:29:26;;;;;;;;;;;3.20;99.90;;;;;;4192021;28;20357;-58
2022/02/08 11:31:35;;;;;;;;;;;3.20;99.90;;;;;;4192238;28;19917;-57
2022/02/08 11:59:30;;;;;;;;;;;3.80;99.90;;;;;;4152610;28;19954;-58
2022/02/08 12:04:13;;;;;;;;;;;3.90;99.90;;;;;;4169802;28;19978;-60
2022/02/08 12:08:34;;;;;;;;;;;3.70;99.90;;;;;;4191839;28;20414;-54
2022/02/08 12:10:44;;;;;;;;;;;3.70;99.90;;;;;;4192242;28;19916;-56
2022/02/08 12:28:03;;;;;;;;;;;3.70;99.90;;;;;;4175803;28;20280;-58
2022/02/08 12:32:08;;;;;;;;;;;3.70;99.90;;;;;;4175339;28;19913;-58
2022/02/08 12:34:18;;;;;;;;;;;3.70;99.90;;;;;;4173338;28;19920;-58
2022/02/08 12:39:33;;;;;;;;;;;3.60;99.90;;;;;;4175433;28;19955;-58
2022/02/08 13:00:06;;;;;;;;;;;3.10;99.90;;;;;;4173774;28;19913;-60
2022/02/08 13:02:32;;;;;;;;;;;3.10;99.90;;;;;;4174878;28;19966;-52
2022/02/08 14:05:30;;;;;;;;;;;3.20;99.90;;;;;;4189132;28;20018;-56
2022/02/08 14:07:19;;;;;;;;;;;3.20;99.90;;;;;;4189808;28;19966;-58
2022/02/08 14:14:07;;;;;;;;;;;3.20;99.90;;;;;;4189676;28;19913;-58
2022/02/08 14:18:26;;;;;;;;;;;3.10;99.90;;;;;;4189258;28;19915;-60
2022/02/08 14:25:02;;;;;;;;;;;3.10;99.90;;;;;;4189828;28;19917;-62
2022/02/08 14:29:40;;;;;;;;;;;3.10;99.90;;;;;;4190146;28;20414;-61
2022/02/08 14:36:30;;;;;;;;;;;3.10;99.90;;;;;;4189705;28;19973;-61
2022/02/08 15:06:20;;;;;;;;;;;3.00;99.90;;;;;;4192668;28;19955;-61
2022/02/08 15:08:29;;;;;;;;;;;2.90;99.90;;;;;;4190807;28;20832;-59
2022/02/08 15:13:05;;;;;;;;;;;2.90;99.90;;;;;;4167137;28;19954;-59
2022/02/08 15:15:28;;;;;;;;;;;2.90;99.90;;;;;;4192300;28;19920;-59
2022/02/08 15:17:29;;;;;;;;;;;2.90;99.90;;;;;;4190440;28;19912;-59
2022/02/08 15:19:30;;;;;;;;;;;2.80;99.90;;;;;;4191480;28;19962;-60
2022/02/08 15:21:34;;;;;;;;;;;2.80;99.90;;;;;;4190566;28;19920;-60
2022/02/08 15:23:35;;;;;;;;;;;2.70;99.90;;;;;;4191400;28;19974;-60
2022/02/08 15:25:37;;;;;;;;;;;2.70;99.90;;;;;;4190948;28;19912;-64
2022/02/08 15:27:41;;;;;;;;;;;2.70;99.90;;;;;;4189971;28;19909;-60
2022/02/08 15:29:42;;;;;;;;;;;2.70;99.90;;;;;;4189949;28;19931;-60
2022/02/08 15:31:43;;;;;;;;;;;2.60;99.90;;;;;;4189255;28;19964;-60
2022/02/08 15:33:44;;;;;;;;;;;2.60;99.90;;;;;;4190648;28;19916;-60
2022/02/08 15:35:45;;;;;;;;;;;2.60;99.90;;;;;;4189825;28;19913;-60
2022/02/08 15:37:46;;;;;;;;;;;2.60;99.90;;;;;;4177244;28;19923;-63
2022/02/08 15:39:50;;;;;;;;;;;2.60;99.90;;;;;;4188239;28;20092;-62
2022/02/08 15:41:50;;;;;;;;;;;2.60;99.90;;;;;;4191739;28;19978;-57
2022/02/08 15:43:51;;;;;;;;;;;2.60;99.90;;;;;;4190471;28;19928;-56
2022/02/08 15:46:06;;;;;;;;;;;2.60;99.90;;;;;;4191284;28;19982;-55
2022/02/08 15:48:10;;;;;;;;;;;2.60;99.90;;;;;;4190320;28;19970;-55
2022/02/08 15:50:23;;;;;;;;;;;2.60;99.90;;;;;;4190374;28;20608;-56
2022/02/08 15:52:43;;;;;;;;;;;2.60;99.90;;;;;;4189879;28;20710;-60
2022/02/08 15:54:49;;;;;;;;;;;2.60;99.90;;;;;;4192057;28;20029;-60
2022/02/08 15:56:57;;;;;;;;;;;2.50;99.90;;;;;;4189615;28;19958;-62
2022/02/08 16:08:27;;;;;;;;;;;2.40;99.90;;;;;;4187741;28;19943;-60
2022/02/08 16:10:47;;;;;;;;;;;2.40;99.90;;;;;;4188524;28;19916;-60
2022/02/08 17:00:10;;;;;;;;;;;1.60;99.90;;;;;;4190908;28;19958;-58
2022/02/08 17:02:17;;;;;;;;;;;1.60;99.90;;;;;;4189446;28;19982;-58
2022/02/08 17:04:18;;;;;;;;;;;1.50;99.90;;;;;;4190024;28;19953;-60
2022/02/08 17:06:21;;;;;;;;;;;1.40;99.90;;;;;;4189578;28;19917;-58
2022/02/08 17:08:24;;;;;;;;;;;1.40;99.90;;;;;;4190558;28;19917;-60
2022/02/08 17:16:40;;;;;;;;;;;1.20;99.90;;;;;;4189990;28;19913;-61
2022/02/08 17:19:01;;;;;;;;;;;1.20;99.90;;;;;;4188560;28;19916;-60
2022/02/08 17:49:30;;;;;;;;;;;1.00;99.90;;;;;;4188770;28;19925;-61
2022/02/08 17:51:31;;;;;;;;;;;1.00;99.90;;;;;;4190118;28;19908;-59
2022/02/08 17:53:32;;;;;;;;;;;0.80;99.90;;;;;;4189182;28;19913;-59
2022/02/08 17:55:33;;;;;;;;;;;0.70;99.90;;;;;;4190538;28;19974;-63
2022/02/08 17:57:36;;;;;;;;;;;0.70;99.90;;;;;;4188101;28;21269;-61
2022/02/08 17:59:37;;;;;;;;;;;0.60;99.90;;;;;;4189561;28;19912;-59
2022/02/08 18:01:38;;;;;;;;;;;0.60;99.90;;;;;;4188048;28;19918;-60
2022/02/08 18:03:39;;;;;;;;;;;0.60;99.90;;;;;;4189439;28;19931;-61
2022/02/08 18:05:44;;;;;;;;;;;0.60;99.90;;;;;;4189226;28;20678;-60
2022/02/08 18:07:44;;;;;;;;;;;0.60;99.90;;;;;;4188875;28;19912;-57
2022/02/08 18:09:47;;;;;;;;;;;0.70;99.90;;;;;;4189256;28;19923;-65
2022/02/08 18:11:48;;;;;;;;;;;0.60;99.90;;;;;;4189036;28;19916;-64
2022/02/08 18:13:50;;;;;;;;;;;0.60;99.90;;;;;;4189322;28;19912;-62
2022/02/08 18:15:51;;;;;;;;;;;0.60;99.90;;;;;;4187597;28;19966;-57
2022/02/08 18:18:01;;;;;;;;;;;0.60;99.90;;;;;;4189105;28;19912;-60
2022/02/08 18:22:25;;;;;;;;;;;0.70;99.90;;;;;;4189910;28;19908;-62
2022/02/08 18:24:47;;;;;;;;;;;0.70;99.90;;;;;;4188987;28;20396;-64
2022/02/08 18:27:27;;;;;;;;;;;0.70;99.90;;;;;;4155481;28;19959;-60
2022/02/08 19:08:45;;;;;;;;;;;0.90;99.90;;;;;;4187297;28;19924;-56
2022/02/08 19:14:31;;;;;;;;;;;0.90;99.90;;;;;;4185040;28;20433;-57
2022/02/08 19:16:58;;;;;;;;;;;0.90;99.90;;;;;;4190740;28;19909;-57
2022/02/08 19:21:20;;;;;;;;;;;0.90;99.90;;;;;;4191787;28;19915;-59
2022/02/08 19:23:21;;;;;;;;;;;0.90;99.90;;;;;;4191926;28;19970;-57
2022/02/08 19:25:22;;;;;;;;;;;0.90;99.90;;;;;;4192119;28;20285;-58
2022/02/08 19:27:23;;;;;;;;;;;1.00;99.90;;;;;;4192425;28;19955;-61
2022/02/08 19:29:26;;;;;;;;;;;1.00;99.90;;;;;;4188133;28;20391;-57
2022/02/08 19:31:27;;;;;;;;;;;1.00;99.90;;;;;;4192714;28;19997;-57
2022/02/08 19:33:28;;;;;;;;;;;0.90;99.90;;;;;;4191184;28;20323;-55
2022/02/08 19:35:29;;;;;;;;;;;0.90;99.90;;;;;;4192535;28;19913;-63
2022/02/08 19:37:31;;;;;;;;;;;0.90;99.90;;;;;;4191485;28;19919;-58
2022/02/08 19:39:36;;;;;;;;;;;0.90;99.90;;;;;;4185178;28;19917;-62
2022/02/08 19:41:37;;;;;;;;;;;0.90;99.90;;;;;;4174607;28;19913;-57
2022/02/08 19:43:38;;;;;;;;;;;0.90;99.90;;;;;;4157238;28;19955;-59
2022/02/08 19:45:44;;;;;;;;;;;0.90;99.90;;;;;;4173851;28;19913;-61
2022/02/08 19:47:45;;;;;;;;;;;0.90;99.90;;;;;;4175809;28;19962;-56
2022/02/08 19:49:46;;;;;;;;;;;0.90;99.90;;;;;;4174349;28;19924;-59
2022/02/08 19:51:47;;;;;;;;;;;0.90;99.90;;;;;;4176252;28;19974;-62
2022/02/08 19:53:51;;;;;;;;;;;1.00;99.90;;;;;;4175057;28;19916;-56
2022/02/08 19:56:18;;;;;;;;;;;1.00;99.90;;;;;;4175171;28;19958;-55
2022/02/08 19:58:23;;;;;;;;;;;1.10;99.90;;;;;;4182490;28;19920;-55
2022/02/08 20:00:29;;;;;;;;;;;1.10;99.90;;;;;;4181435;28;19908;-57
2022/02/08 20:02:30;;;;;;;;;;;1.10;99.90;;;;;;4184877;28;19908;-57
2022/02/08 20:04:33;;;;;;;;;;;1.10;99.90;;;;;;4190331;28;20330;-55
2022/02/08 20:06:35;;;;;;;;;;;1.10;99.90;;;;;;4190371;28;19966;-63
2022/02/08 20:08:36;;;;;;;;;;;1.20;99.90;;;;;;4174011;28;19913;-56